Time;durP1;ratioP1;P1;durP2;ratioP2;P2;SDS_P1;SDS_P2;PMS_P1;PMS_P2;Temp;Humidity;BMP_temperature;BMP_pressure;BME280_temperature;BME280_humidity;BME280_pressure;Samples;Min_cycle;Max_cycle;Signal;HPM_P1;HPM_P2
2021/09/18 00:02:12;;;;;;;;;;;;;;;-142.75;100.00;76877.38;5020754;28;19917;-77
2021/09/18 00:04:38;;;;;;;;;;;;;;;-142.75;100.00;76867.53;5036972;28;20293;-77
2021/09/18 00:07:03;;;;;;;;;;;;;;;-142.75;100.00;76863.59;5037378;28;20373;-77
2021/09/18 00:09:28;;;;;;;;;;;;;;;-142.75;100.00;76855.72;5037109;28;20024;-77
2021/09/18 00:11:53;;;;;;;;;;;;;;;-142.75;100.00;76847.84;5037014;28;19913;-77
2021/09/18 00:14:21;;;;;;;;;;;;;;;-142.75;100.00;76853.75;5036229;28;19913;-77
2021/09/18 00:16:47;;;;;;;;;;;;;;;-142.75;100.00;76843.91;5015496;28;19912;-77
2021/09/18 00:19:12;;;;;;;;;;;;;;;-142.75;100.00;76838.00;5015504;28;20297;-77
2021/09/18 00:21:37;;;;;;;;;;;;;;;-142.75;100.00;76851.78;5015463;28;19913;-77
2021/09/18 00:24:03;;;;;;;;;;;;;;;-142.75;100.00;76849.81;5033648;28;20015;-78
2021/09/18 00:26:28;;;;;;;;;;;;;;;-142.75;100.00;76843.91;5034416;28;19936;-77
2021/09/18 00:28:53;;;;;;;;;;;;;;;-142.75;100.00;76853.75;5016235;28;19913;-77
2021/09/18 00:31:18;;;;;;;;;;;;;;;-142.75;100.00;76859.66;5020244;28;19912;-77
2021/09/18 00:33:43;;;;;;;;;;;;;;;-142.75;100.00;76867.53;5051817;28;19966;-76
2021/09/18 00:36:09;;;;;;;;;;;;;;;-142.75;100.00;76863.59;5027072;28;19913;-77
2021/09/18 00:38:34;;;;;;;;;;;;;;;-142.75;100.00;76861.63;5031787;28;20012;-77
2021/09/18 00:40:59;;;;;;;;;;;;;;;-142.75;100.00;76871.47;5032160;28;19944;-77
2021/09/18 00:43:24;;;;;;;;;;;;;;;-142.75;100.00;76889.19;5031798;28;19916;-77
2021/09/18 00:45:49;;;;;;;;;;;;;;;-142.75;100.00;76885.25;5031343;28;19935;-77
2021/09/18 00:48:15;;;;;;;;;;;;;;;-142.75;100.00;76889.19;5031203;28;19919;-77
2021/09/18 00:50:41;;;;;;;;;;;;;;;-142.75;100.00;76885.25;5051330;28;20365;-77
2021/09/18 00:53:06;;;;;;;;;;;;;;;-142.75;100.00;76883.28;5043348;28;19913;-77
2021/09/18 00:55:31;;;;;;;;;;;;;;;-142.75;100.00;76879.34;5032461;28;19913;-77
2021/09/18 00:57:56;;;;;;;;;;;;;;;-142.75;100.00;76873.44;5033402;28;19917;-77
2021/09/18 01:00:22;;;;;;;;;;;;;;;-142.75;100.00;76867.53;5034978;28;19913;-77
2021/09/18 01:02:47;;;;;;;;;;;;;;;-142.75;100.00;76855.72;5021389;28;19916;-78
2021/09/18 01:05:12;;;;;;;;;;;;;;;-142.75;100.00;76859.66;5043136;28;19912;-77
2021/09/18 01:07:38;;;;;;;;;;;;;;;-142.75;100.00;76859.66;5015699;28;19916;-77
2021/09/18 01:10:04;;;;;;;;;;;;;;;-142.75;100.00;76861.63;5029036;28;20385;-77
2021/09/18 01:12:29;;;;;;;;;;;;;;;-142.75;100.00;76865.56;5013408;28;19948;-76
2021/09/18 01:14:54;;;;;;;;;;;;;;;-142.75;100.00;76861.63;5030438;28;20275;-77
2021/09/18 01:17:19;;;;;;;;;;;;;;;-142.75;100.00;76857.69;5033565;28;19920;-77
2021/09/18 01:19:45;;;;;;;;;;;;;;;-142.75;100.00;76863.59;5016127;28;19913;-77
2021/09/18 01:22:10;;;;;;;;;;;;;;;-142.75;100.00;76859.66;5051919;28;19923;-77
2021/09/18 01:24:36;;;;;;;;;;;;;;;-142.75;100.00;76863.59;5053437;28;19920;-77
2021/09/18 01:27:02;;;;;;;;;;;;;;;-142.75;100.00;76867.53;5052055;28;19996;-77
2021/09/18 01:29:27;;;;;;;;;;;;;;;-142.75;100.00;76881.31;5052061;28;20011;-77
2021/09/18 01:31:52;;;;;;;;;;;;;;;-142.75;100.00;76893.13;5036369;28;19919;-77
2021/09/18 01:34:22;;;;;;;;;;;;;;;-142.75;100.00;76912.81;5035914;28;19912;-77
2021/09/18 01:36:48;;;;;;;;;;;;;;;-142.75;100.00;76936.44;5036688;28;19927;-78
2021/09/18 01:39:13;;;;;;;;;;;;;;;-142.75;100.00;76958.09;5054334;28;20309;-77
2021/09/18 01:41:40;;;;;;;;;;;;;;;-142.75;100.00;76954.16;5053737;28;19946;-77
2021/09/18 01:44:05;;;;;;;;;;;;;;;-142.75;100.00;76958.09;5034640;28;19931;-77
2021/09/18 01:46:30;;;;;;;;;;;;;;;-142.75;100.00;76960.06;5035576;28;19916;-78
2021/09/18 01:48:55;;;;;;;;;;;;;;;-142.75;100.00;76971.88;5020917;28;19913;-78
2021/09/18 01:51:21;;;;;;;;;;;;;;;-142.75;100.00;76956.13;5035585;28;19912;-77
2021/09/18 01:53:47;;;;;;;;;;;;;;;-142.75;100.00;76960.06;5053010;28;19982;-77
2021/09/18 01:56:12;;;;;;;;;;;;;;;-142.75;100.00;76960.06;5047737;28;19916;-78
2021/09/18 01:58:37;;;;;;;;;;;;;;;-142.75;100.00;76952.19;5028505;28;20344;-78
2021/09/18 02:01:03;;;;;;;;;;;;;;;-142.75;100.00;76940.38;5033892;28;19913;-79
2021/09/18 02:03:29;;;;;;;;;;;;;;;-142.75;100.00;76948.25;5024663;28;19970;-77
2021/09/18 02:05:54;;;;;;;;;;;;;;;-142.75;100.00;76956.13;5049156;28;19916;-78
2021/09/18 02:08:20;;;;;;;;;;;;;;;-142.75;100.00;76962.03;5029168;28;19913;-78
2021/09/18 02:10:46;;;;;;;;;;;;;;;-142.75;100.00;76958.09;5032015;28;19919;-77
2021/09/18 02:13:11;;;;;;;;;;;;;;;-142.75;100.00;76954.16;5043135;28;19917;-77
2021/09/18 02:15:36;;;;;;;;;;;;;;;-142.75;100.00;76958.09;5021152;28;19917;-78
2021/09/18 02:18:03;;;;;;;;;;;;;;;-142.75;100.00;76956.13;5023095;28;19913;-78
2021/09/18 02:20:29;;;;;;;;;;;;;;;-142.75;100.00;76956.13;5022938;28;19978;-77
2021/09/18 02:22:54;;;;;;;;;;;;;;;-142.75;100.00;76944.31;5019311;28;20300;-78
2021/09/18 02:25:20;;;;;;;;;;;;;;;-142.75;100.00;76924.63;5027497;28;19912;-78
2021/09/18 02:27:45;;;;;;;;;;;;;;;-142.75;100.00;76932.50;5039458;28;19921;-77
2021/09/18 02:30:12;;;;;;;;;;;;;;;-142.75;100.00;76936.44;5031314;28;19917;-78
2021/09/18 02:32:38;;;;;;;;;;;;;;;-142.75;100.00;76946.28;5033445;28;20343;-77
2021/09/18 02:35:05;;;;;;;;;;;;;;;-142.75;100.00;76960.06;5032114;28;19952;-78
2021/09/18 02:37:30;;;;;;;;;;;;;;;-142.75;100.00;76975.81;5030517;28;20019;-78
2021/09/18 02:39:55;;;;;;;;;;;;;;;-142.75;100.00;76977.78;5052454;28;19960;-78
2021/09/18 02:42:20;;;;;;;;;;;;;;;-142.75;100.00;76965.97;5030376;28;19920;-77
2021/09/18 02:44:45;;;;;;;;;;;;;;;-142.75;100.00;76948.25;5025046;28;19913;-77
2021/09/18 02:47:11;;;;;;;;;;;;;;;-142.75;100.00;76940.38;5017418;28;20397;-76
2021/09/18 02:49:36;;;;;;;;;;;;;;;-142.75;100.00;76940.38;5044526;28;19913;-78
2021/09/18 02:52:01;;;;;;;;;;;;;;;-142.75;100.00;76952.19;5036213;28;19912;-77
2021/09/18 02:54:26;;;;;;;;;;;;;;;-142.75;100.00;76958.09;5015634;28;19952;-78
2021/09/18 02:56:51;;;;;;;;;;;;;;;-142.75;100.00;76985.66;5034284;28;19913;-78
2021/09/18 02:59:17;;;;;;;;;;;;;;;-142.75;100.00;77007.31;5014782;28;19963;-78
2021/09/18 03:01:42;;;;;;;;;;;;;;;-142.75;100.00;77019.13;5014728;28;20387;-78
2021/09/18 03:04:07;;;;;;;;;;;;;;;-142.75;100.00;77015.19;5021153;28;19929;-79
2021/09/18 03:06:32;;;;;;;;;;;;;;;-142.75;100.00;77007.31;5036565;28;19920;-79
2021/09/18 03:08:58;;;;;;;;;;;;;;;-142.75;100.00;76997.47;5041850;28;19913;-79
2021/09/18 03:11:23;;;;;;;;;;;;;;;-142.75;100.00;76991.56;5014771;28;19913;-78
2021/09/18 03:13:49;;;;;;;;;;;;;;;-142.75;100.00;77001.41;5042074;28;19920;-78
2021/09/18 03:16:14;;;;;;;;;;;;;;;-142.75;100.00;77013.22;5017521;28;19962;-77
2021/09/18 03:18:39;;;;;;;;;;;;;;;-142.75;100.00;77017.16;5032084;28;19920;-78
2021/09/18 03:21:04;;;;;;;;;;;;;;;-142.75;100.00;77040.78;5032387;28;19960;-78
2021/09/18 03:23:29;;;;;;;;;;;;;;;-142.75;100.00;77068.34;5041080;28;19925;-78
2021/09/18 03:25:55;;;;;;;;;;;;;;;-142.75;100.00;77074.25;5020121;28;19967;-78
2021/09/18 03:28:20;;;;;;;;;;;;;;;-142.75;100.00;77042.75;5024606;28;19984;-79
2021/09/18 03:30:45;;;;;;;;;;;;;;;-142.75;100.00;77019.13;5044829;28;20384;-78
2021/09/18 03:33:10;;;;;;;;;;;;;;;-142.75;100.00;76993.53;5041998;28;20039;-77
2021/09/18 03:35:35;;;;;;;;;;;;;;;-142.75;100.00;76971.88;5038563;28;19963;-78
2021/09/18 03:38:01;;;;;;;;;;;;;;;-142.75;100.00;76967.94;5038439;28;20381;-78
2021/09/18 03:40:26;;;;;;;;;;;;;;;-142.75;100.00;76977.78;5043717;28;19988;-77
2021/09/18 03:42:51;;;;;;;;;;;;;;;-142.75;100.00;76983.69;5042314;28;19916;-77
2021/09/18 03:45:16;;;;;;;;;;;;;;;-142.75;100.00;77025.03;5044899;28;19913;-78
2021/09/18 03:47:41;;;;;;;;;;;;;;;-142.75;100.00;77054.56;5043237;28;19919;-77
2021/09/18 03:50:07;;;;;;;;;;;;;;;-142.75;100.00;77066.38;5027778;28;19912;-78
2021/09/18 03:52:32;;;;;;;;;;;;;;;-142.75;100.00;77082.13;5052826;28;19919;-78
2021/09/18 03:57:26;;;;;;;;;;;;;;;-142.75;100.00;77097.88;5064562;22;19920;-80
2021/09/18 03:59:51;;;;;;;;;;;;;;;-142.75;100.00;77113.63;5046734;28;19923;-79
2021/09/18 04:02:16;;;;;;;;;;;;;;;-142.75;100.00;77101.81;5045710;28;19967;-79
2021/09/18 04:04:42;;;;;;;;;;;;;;;-142.75;100.00;77095.91;5029453;28;19982;-79
2021/09/18 04:07:07;;;;;;;;;;;;;;;-142.75;100.00;77090.00;5011787;28;19913;-79
2021/09/18 04:09:32;;;;;;;;;;;;;;;-142.75;100.00;77090.00;5026381;28;19913;-79
2021/09/18 04:11:57;;;;;;;;;;;;;;;-142.75;100.00;77097.88;5033725;28;19913;-79
2021/09/18 04:14:22;;;;;;;;;;;;;;;-142.75;100.00;77101.81;5032230;28;19919;-79
2021/09/18 04:16:48;;;;;;;;;;;;;;;-142.75;100.00;77105.75;5034651;28;19924;-80
2021/09/18 04:19:13;;;;;;;;;;;;;;;-142.75;100.00;77111.66;5030941;28;19920;-80
2021/09/18 04:21:38;;;;;;;;;;;;;;;-142.75;100.00;77119.53;5014100;28;19914;-80
2021/09/18 04:24:04;;;;;;;;;;;;;;;-142.75;100.00;77129.38;5013772;28;19922;-81
2021/09/18 04:26:30;;;;;;;;;;;;;;;-142.75;100.00;77129.38;5031595;28;19913;-80
2021/09/18 04:28:55;;;;;;;;;;;;;;;-142.75;100.00;77125.44;5008904;28;20448;-80
2021/09/18 04:31:20;;;;;;;;;;;;;;;-142.75;100.00;77121.50;5030479;28;19976;-81
2021/09/18 04:33:46;;;;;;;;;;;;;;;-142.75;100.00;77125.44;5012449;28;19955;-80
2021/09/18 04:36:11;;;;;;;;;;;;;;;-142.75;100.00;77121.50;5014867;28;19943;-81
2021/09/18 04:38:36;;;;;;;;;;;;;;;-142.75;100.00;77125.44;5024918;28;19921;-79
2021/09/18 04:41:02;;;;;;;;;;;;;;;-142.75;100.00;77125.44;5009107;28;19920;-79
2021/09/18 04:43:27;;;;;;;;;;;;;;;-142.75;100.00;77109.69;5028711;28;19956;-80
2021/09/18 04:45:52;;;;;;;;;;;;;;;-142.75;100.00;77153.00;5010215;28;20032;-80
2021/09/18 04:48:18;;;;;;;;;;;;;;;-142.75;100.00;77090.00;5013792;28;19913;-79
2021/09/18 04:50:43;;;;;;;;;;;;;;;-142.75;100.00;77088.03;5025272;28;19920;-80
2021/09/18 04:53:08;;;;;;;;;;;;;;;-142.75;100.00;77090.00;5008722;28;19967;-80
2021/09/18 04:55:33;;;;;;;;;;;;;;;-142.75;100.00;77074.25;5025005;28;19913;-79
2021/09/18 04:57:58;;;;;;;;;;;;;;;-142.75;100.00;77074.25;5029855;28;20272;-79
2021/09/18 05:00:24;;;;;;;;;;;;;;;-142.75;100.00;77056.53;5020657;28;19984;-79
2021/09/18 05:02:49;;;;;;;;;;;;;;;-142.75;100.00;77046.69;5024424;28;19917;-79
2021/09/18 05:05:14;;;;;;;;;;;;;;;-142.75;100.00;77038.81;5008879;28;20504;-80
2021/09/18 05:07:39;;;;;;;;;;;;;;;-142.75;100.00;77062.44;5010974;28;19916;-80
2021/09/18 05:10:05;;;;;;;;;;;;;;;-142.75;100.00;77062.44;5023998;28;19914;-79
2021/09/18 05:12:30;;;;;;;;;;;;;;;-142.75;100.00;77068.34;5028810;28;19920;-79
2021/09/18 05:14:55;;;;;;;;;;;;;;;-142.75;100.00;77068.34;5009999;28;19971;-80
2021/09/18 05:17:20;;;;;;;;;;;;;;;-142.75;100.00;77060.47;5028142;28;19913;-80
2021/09/18 05:19:46;;;;;;;;;;;;;;;-142.75;100.00;77062.44;5012330;28;19920;-80
2021/09/18 05:22:11;;;;;;;;;;;;;;;-142.75;100.00;77058.50;5012261;28;19928;-79
2021/09/18 05:24:36;;;;;;;;;;;;;;;-142.75;100.00;77066.38;5010011;28;19935;-78
2021/09/18 05:27:01;;;;;;;;;;;;;;;-142.75;100.00;77042.75;5012346;28;19917;-79
2021/09/18 05:29:27;;;;;;;;;;;;;;;-142.75;100.00;77042.75;5009641;28;19987;-79
2021/09/18 05:31:52;;;;;;;;;;;;;;;-142.75;100.00;77060.47;5025149;28;20394;-79
2021/09/18 05:34:17;;;;;;;;;;;;;;;-142.75;100.00;77003.38;5032697;28;19920;-79
2021/09/18 05:36:42;;;;;;;;;;;;;;;-142.75;100.00;77015.19;5029206;28;19917;-79
2021/09/18 05:39:08;;;;;;;;;;;;;;;-142.75;100.00;77007.31;5012118;28;19913;-79
2021/09/18 05:41:33;;;;;;;;;;;;;;;-142.75;100.00;77034.88;5026611;28;19921;-79
2021/09/18 05:43:58;;;;;;;;;;;;;;;-142.75;100.00;77042.75;5008190;28;19917;-80
2021/09/18 05:46:23;;;;;;;;;;;;;;;-142.75;100.00;77046.69;5031642;28;20437;-80
2021/09/18 05:48:48;;;;;;;;;;;;;;;-142.75;100.00;77034.88;5025890;28;20430;-80
2021/09/18 05:51:14;;;;;;;;;;;;;;;-142.75;100.00;77021.09;5026962;28;20055;-80
2021/09/18 05:53:39;;;;;;;;;;;;;;;-142.75;100.00;77015.19;5006324;28;19914;-80
2021/09/18 05:56:04;;;;;;;;;;;;;;;-142.75;100.00;77009.28;5008407;28;19924;-79
2021/09/18 05:58:29;;;;;;;;;;;;;;;-142.75;100.00;76975.81;5022043;28;20374;-79
2021/09/18 06:00:54;;;;;;;;;;;;;;;-142.75;100.00;76995.50;5025592;28;20288;-79
2021/09/18 06:03:20;;;;;;;;;;;;;;;-142.75;100.00;76993.53;5010772;28;19925;-79
2021/09/18 06:05:45;;;;;;;;;;;;;;;-142.75;100.00;76983.69;5011212;28;20015;-79
2021/09/18 06:08:10;;;;;;;;;;;;;;;-142.75;100.00;76979.75;5009604;28;19975;-79
2021/09/18 06:10:35;;;;;;;;;;;;;;;-142.75;100.00;76967.94;5027980;28;19913;-79
2021/09/18 06:13:01;;;;;;;;;;;;;;;-142.75;100.00;76964.00;5013038;28;19913;-80
2021/09/18 06:15:26;;;;;;;;;;;;;;;-142.75;100.00;76938.41;5023157;28;19984;-79
2021/09/18 06:17:51;;;;;;;;;;;;;;;-142.75;100.00;76932.50;5007494;28;20393;-80
2021/09/18 06:20:16;;;;;;;;;;;;;;;-142.75;100.00;76940.38;5007628;28;19936;-80
2021/09/18 06:22:41;;;;;;;;;;;;;;;-142.75;100.00;76932.50;5029093;28;19925;-79
2021/09/18 06:25:11;;;;;;;;;;;;;;;-142.75;100.00;76948.25;5031503;28;20366;-79
2021/09/18 06:27:36;;;;;;;;;;;;;;;-142.75;100.00;76952.19;5010564;28;19913;-80
2021/09/18 06:30:01;;;;;;;;;;;;;;;-142.75;100.00;76950.22;5022645;28;19936;-79
2021/09/18 06:32:27;;;;;;;;;;;;;;;-142.75;100.00;76940.38;5030003;28;20395;-79
2021/09/18 06:34:52;;;;;;;;;;;;;;;-142.75;100.00;76924.63;5008363;28;19920;-79
2021/09/18 06:37:17;;;;;;;;;;;;;;;-142.75;100.00;76926.59;5004403;28;19913;-79
2021/09/18 06:39:42;;;;;;;;;;;;;;;-142.75;100.00;76899.03;5009823;28;20012;-79
2021/09/18 06:42:08;;;;;;;;;;;;;;;-142.75;100.00;76881.31;5009175;28;19913;-79
2021/09/18 06:44:33;;;;;;;;;;;;;;;-142.75;100.00;76885.25;5028995;28;19921;-79
2021/09/18 06:46:58;;;;;;;;;;;;;;;-142.75;100.00;76867.53;5006244;28;19921;-78
2021/09/18 06:49:24;;;;;;;;;;;;;;;-142.75;100.00;76881.31;5010064;28;19970;-78
2021/09/18 06:51:49;;;;;;;;;;;;;;;-142.75;100.00;76857.69;5029391;28;20003;-78
2021/09/18 06:54:14;;;;;;;;;;;;;;;-142.75;100.00;76792.75;5027276;28;20377;-79
2021/09/18 06:56:39;;;;;;;;;;;;;;;-142.75;100.00;76755.34;5006379;28;19920;-78
2021/09/18 06:59:04;;;;;;;;;;;;;;;-142.75;100.00;76802.56;5023995;28;19963;-78
2021/09/18 07:01:30;;;;;;;;;;;;;;;-142.75;100.00;76857.69;5004038;28;19913;-79
2021/09/18 07:03:55;;;;;;;;;;;;;;;-142.75;100.00;76830.13;5019546;28;19925;-78
2021/09/18 07:06:20;;;;;;;;;;;;;;;-142.75;100.00;76775.03;5010688;28;19967;-78
2021/09/18 07:08:46;;;;;;;;;;;;;;;-142.75;100.00;76751.41;5011335;28;20297;-80
2021/09/18 07:11:11;;;;;;;;;;;;;;;-142.75;100.00;76737.63;5010384;28;19920;-79
2021/09/18 07:13:36;;;;;;;;;;;;;;;-142.75;100.00;76757.31;5007017;28;20307;-79
2021/09/18 07:16:02;;;;;;;;;;;;;;;-142.75;100.00;76769.13;5001059;28;19913;-79
2021/09/18 07:18:28;;;;;;;;;;;;;;;-142.75;100.00;76757.31;5007301;28;19913;-79
2021/09/18 07:20:53;;;;;;;;;;;;;;;-142.75;100.00;76700.22;5002647;28;20016;-80
2021/09/18 07:23:19;;;;;;;;;;;;;;;-142.75;100.00;76668.72;5022217;28;19921;-78
2021/09/18 07:25:45;;;;;;;;;;;;;;;-142.75;100.00;76658.88;5025067;28;19925;-78
2021/09/18 07:28:10;;;;;;;;;;;;;;;-142.75;99.52;76593.91;5010237;28;19913;-78
2021/09/18 07:30:35;;;;;;;;;;;;;;;-142.75;96.28;76593.91;5031887;28;19912;-79
2021/09/18 07:33:00;;;;;;;;;;;;;;;-142.75;97.20;76517.16;5001491;28;19917;-81
2021/09/18 07:35:25;;;;;;;;;;;;;;;-142.75;91.72;76456.13;5010691;28;19953;-81
2021/09/18 07:37:51;;;;;;;;;;;;;;;-142.75;89.38;76424.63;5025235;28;19912;-82
2021/09/18 07:40:16;;;;;;;;;;;;;;;-142.75;86.68;76284.88;5018019;28;19920;-82
2021/09/18 07:42:41;;;;;;;;;;;;;;;-142.75;81.48;76227.78;5011255;28;19916;-82
2021/09/18 07:45:07;;;;;;;;;;;;;;;-142.75;76.73;76190.41;5020838;28;19917;-80
2021/09/18 07:47:32;;;;;;;;;;;;;;;-142.75;75.85;76286.84;5011045;28;19913;-82
2021/09/18 07:49:57;;;;;;;;;;;;;;;-142.75;79.65;76379.34;5007124;28;19920;-80
2021/09/18 07:52:23;;;;;;;;;;;;;;;-142.75;82.07;76355.72;5021743;28;19914;-80
2021/09/18 07:54:48;;;;;;;;;;;;;;;-142.75;83.48;76369.50;5016524;28;19927;-79
2021/09/18 07:57:13;;;;;;;;;;;;;;;-142.75;84.23;76393.13;5028043;28;19935;-79
2021/09/18 07:59:39;;;;;;;;;;;;;;;-142.75;80.97;76316.38;5018310;28;19914;-79
2021/09/18 08:02:04;;;;;;;;;;;;;;;-142.75;79.57;76286.84;5012399;28;20302;-79
2021/09/18 08:04:29;;;;;;;;;;;;;;;-142.75;75.21;76245.50;5009698;28;20414;-80
2021/09/18 08:06:54;;;;;;;;;;;;;;;-142.75;74.99;76202.19;5023035;28;19913;-80
2021/09/18 08:09:19;;;;;;;;;;;;;;;-142.75;75.02;76239.59;5031652;28;19921;-80
2021/09/18 08:11:45;;;;;;;;;;;;;;;-142.75;75.23;76243.53;5001215;28;19956;-80
2021/09/18 08:14:10;;;;;;;;;;;;;;;-142.75;75.49;76223.84;5028370;28;20692;-80
2021/09/18 08:16:35;;;;;;;;;;;;;;;-142.75;72.82;76194.34;5007495;28;19917;-80
2021/09/18 08:19:00;;;;;;;;;;;;;;;-142.75;72.63;76158.91;5025474;28;19916;-80
2021/09/18 08:21:26;;;;;;;;;;;;;;;-142.75;74.51;76202.19;5008023;28;19972;-79
2021/09/18 08:23:51;;;;;;;;;;;;;;;-142.75;70.89;76202.19;5023684;28;19987;-79
2021/09/18 08:26:16;;;;;;;;;;;;;;;-142.75;70.18;76139.22;5007622;28;20000;-79
2021/09/18 08:28:41;;;;;;;;;;;;;;;-142.75;69.79;76113.63;5012418;28;19963;-79
2021/09/18 08:31:06;;;;;;;;;;;;;;;-142.75;70.60;76123.47;5025305;28;20434;-81
2021/09/18 08:33:32;;;;;;;;;;;;;;;-142.75;68.73;76062.47;5005554;28;19912;-79
2021/09/18 08:35:57;;;;;;;;;;;;;;;-142.75;68.56;76062.47;5023400;28;19912;-80
2021/09/18 08:38:23;;;;;;;;;;;;;;;-142.75;68.08;76068.38;5009707;28;20003;-79
2021/09/18 08:40:50;;;;;;;;;;;;;;;-142.75;66.76;76054.59;5024440;28;19914;-79
2021/09/18 08:43:16;;;;;;;;;;;;;;;-142.75;67.99;76066.41;5028029;28;19917;-79
2021/09/18 08:45:41;;;;;;;;;;;;;;;-142.75;69.08;76076.22;5005967;28;19913;-79
2021/09/18 08:48:07;;;;;;;;;;;;;;;-142.75;68.87;76123.47;5005741;28;19928;-79
2021/09/18 08:50:33;;;;;;;;;;;;;;;-142.75;69.84;76190.41;5013365;28;20441;-79
2021/09/18 08:52:58;;;;;;;;;;;;;;;-142.75;70.47;76015.22;5025934;28;19912;-80
2021/09/18 08:55:23;;;;;;;;;;;;;;;-142.75;64.01;75903.03;5014618;28;20820;-79
2021/09/18 08:57:49;;;;;;;;;;;;;;;-142.75;62.08;75932.56;5027552;28;19913;-80
2021/09/18 09:00:30;;;;;;;;;;;;;;;-142.75;64.70;75934.53;5007000;28;20008;-80
2021/09/18 09:02:56;;;;;;;;;;;;;;;-142.75;61.08;75895.16;5025217;28;19959;-79
2021/09/18 09:05:26;;;;;;;;;;;;;;;-142.75;63.53;75912.88;5021125;28;19968;-79
2021/09/18 09:08:10;;;;;;;;;;;;;;;-142.75;62.61;75867.59;5001119;28;19917;-81
2021/09/18 09:10:36;;;;;;;;;;;;;;;-142.75;60.83;75814.47;5018904;28;19925;-80
2021/09/18 09:13:03;;;;;;;;;;;;;;;-142.75;58.80;75763.28;5023179;28;20374;-79
2021/09/18 09:15:28;;;;;;;;;;;;;;;-142.75;58.11;75755.44;5002981;28;19917;-80
2021/09/18 09:17:53;;;;;;;;;;;;;;;-142.75;59.00;75775.09;4999081;28;19928;-79
2021/09/18 09:20:23;;;;;;;;;;;;;;;-142.75;56.88;75684.56;5003281;28;19916;-80
2021/09/18 09:22:50;;;;;;;;;;;;;;;-142.75;58.17;75830.22;5013086;28;19917;-80
2021/09/18 09:25:24;;;;;;;;;;;;;;;-142.75;55.50;75625.53;5027607;28;19937;-83
2021/09/18 09:27:51;;;;;;;;;;;;;;;-142.75;54.29;75641.28;5014967;28;19923;-82
2021/09/18 09:30:31;;;;;;;;;;;;;;;-142.75;58.60;75810.53;4996937;28;20298;-78
2021/09/18 09:33:03;;;;;;;;;;;;;;;-142.75;57.34;75739.69;5008458;28;19921;-80
2021/09/18 09:35:28;;;;;;;;;;;;;;;-142.75;56.75;75721.97;5003505;28;19920;-80
2021/09/18 09:37:54;;;;;;;;;;;;;;;-142.75;58.76;75857.78;5025889;28;19917;-82
2021/09/18 09:40:38;;;;;;;;;;;;;;;-142.75;57.74;75718.03;5016778;28;19920;-80
2021/09/18 09:43:04;;;;;;;;;;;;;;;-142.75;57.23;75759.38;5021223;28;20048;-81
2021/09/18 09:45:30;;;;;;;;;;;;;;;-142.75;55.97;75788.88;5009265;28;20011;-81
2021/09/18 09:48:14;;;;;;;;;;;;;;;-142.75;57.23;75784.94;5005833;28;20004;-79
2021/09/18 09:50:41;;;;;;;;;;;;;;;-142.75;58.58;75842.03;5017003;28;19921;-79
2021/09/18 09:53:22;;;;;;;;;;;;;;;-142.75;60.50;75873.50;5016626;28;19913;-79
2021/09/18 09:55:47;;;;;;;;;;;;;;;-142.75;59.35;75853.84;5016871;28;19921;-80
2021/09/18 09:58:13;;;;;;;;;;;;;;;-142.75;59.22;75747.56;5015241;28;19913;-80
2021/09/18 10:00:52;;;;;;;;;;;;;;;-142.75;56.54;75739.69;5015495;28;19952;-81
2021/09/18 10:03:24;;;;;;;;;;;;;;;-142.75;56.97;75708.19;5008153;28;19921;-81
2021/09/18 10:05:50;;;;;;;;;;;;;;;-142.75;52.28;75542.88;5022259;28;19975;-80
2021/09/18 10:08:19;;;;;;;;;;;;;;;-142.75;51.61;75607.81;5014021;28;19980;-80
2021/09/18 10:10:45;;;;;;;;;;;;;;;-142.75;53.89;75680.63;5032166;28;19928;-79
2021/09/18 10:13:11;;;;;;;;;;;;;;;-142.75;52.77;75570.44;5022403;28;19928;-79
2021/09/18 10:15:36;;;;;;;;;;;;;;;-142.75;53.42;75621.59;5025496;28;19912;-81
2021/09/18 10:18:03;;;;;;;;;;;;;;;-142.75;50.26;75444.47;5031723;28;20293;-81
2021/09/18 10:23:15;;;;;;;;;;;;;;;-142.75;49.52;75588.16;5032821;28;20585;-82
2021/09/18 10:25:41;;;;;;;;;;;;;;;-142.75;49.35;75562.56;5003466;28;19924;-80
2021/09/18 10:28:10;;;;;;;;;;;;;;;-142.75;49.95;75538.94;5027754;28;19996;-80
2021/09/18 10:30:43;;;;;;;;;;;;;;;-142.75;48.61;75523.19;5016053;28;19976;-80
2021/09/18 10:33:27;;;;;;;;;;;;;;;-142.75;47.08;75531.06;5005288;28;19945;-80
2021/09/18 10:35:54;;;;;;;;;;;;;;;-142.75;46.70;75529.09;5022252;28;19928;-79
2021/09/18 10:38:20;;;;;;;;;;;;;;;-142.75;48.46;75660.97;5007214;28;19913;-79
2021/09/18 10:41:03;;;;;;;;;;;;;;;-142.75;49.54;75582.25;5031931;28;19912;-78
2021/09/18 10:43:33;;;;;;;;;;;;;;;-142.75;46.90;75560.59;5025809;28;19917;-78
2021/09/18 10:45:59;;;;;;;;;;;;;;;-142.75;50.99;75767.22;5012970;28;19913;-81
2021/09/18 10:48:33;;;;;;;;;;;;;;;-142.75;51.67;75696.38;5002050;28;20295;-80
2021/09/18 10:50:58;;;;;;;;;;;;;;;-142.75;50.00;75716.06;5009348;28;19913;-81
2021/09/18 10:53:23;;;;;;;;;;;;;;;-142.75;51.78;75737.72;5018824;28;19914;-78
2021/09/18 10:55:50;;;;;;;;;;;;;;;-142.75;48.55;75566.50;5032479;28;20289;-80
2021/09/18 10:58:16;;;;;;;;;;;;;;;-142.75;47.31;75550.75;5022795;28;20363;-80
2021/09/18 11:00:43;;;;;;;;;;;;;;;-142.75;48.24;75605.84;5018000;28;19913;-79
2021/09/18 11:03:08;;;;;;;;;;;;;;;-142.75;49.16;75645.22;5001714;28;20354;-79
2021/09/18 11:05:37;;;;;;;;;;;;;;;-142.75;49.96;75629.47;5013457;28;19960;-79
2021/09/18 11:08:14;;;;;;;;;;;;;;;-142.75;51.62;75735.75;5031941;28;19944;-80
2021/09/18 11:10:45;;;;;;;;;;;;;;;-142.75;49.98;75712.13;4995974;28;20366;-79
2021/09/18 11:13:10;;;;;;;;;;;;;;;-142.75;46.89;75672.78;5012366;28;20383;-79
2021/09/18 11:15:48;;;;;;;;;;;;;;;-142.75;47.93;75649.16;4994432;28;19921;-79
2021/09/18 11:18:25;;;;;;;;;;;;;;;-142.75;49.00;75639.31;5015417;28;19924;-79
2021/09/18 11:20:51;;;;;;;;;;;;;;;-142.75;47.87;75639.31;5019283;28;20036;-78
2021/09/18 11:23:30;;;;;;;;;;;;;;;-142.75;46.75;75617.66;5017049;28;19925;-79
2021/09/18 11:25:56;;;;;;;;;;;;;;;-142.75;46.73;75653.09;5023247;28;19920;-80
2021/09/18 11:28:21;;;;;;;;;;;;;;;-142.75;45.59;75535.00;4994387;28;19914;-79
2021/09/18 11:30:50;;;;;;;;;;;;;;;-142.75;44.37;75468.09;5011866;28;20413;-80
2021/09/18 11:33:17;;;;;;;;;;;;;;;-142.75;43.71;75599.94;5025721;28;19912;-81
2021/09/18 11:35:50;;;;;;;;;;;;;;;-142.75;46.65;75686.53;5027460;28;19913;-80
2021/09/18 11:38:19;;;;;;;;;;;;;;;-142.75;47.00;75782.97;5017452;28;19991;-80
2021/09/18 11:40:45;;;;;;;;;;;;;;;-142.75;49.35;75855.81;5025561;28;20315;-80
2021/09/18 11:43:10;;;;;;;;;;;;;;;-142.75;50.36;75889.25;4996913;28;19925;-80
2021/09/18 11:45:39;;;;;;;;;;;;;;;-142.75;53.34;75877.44;5028216;28;19921;-80
2021/09/18 11:48:04;;;;;;;;;;;;;;;-142.75;51.08;75796.75;5028413;28;19977;-80
2021/09/18 11:50:33;;;;;;;;;;;;;;;-142.75;50.57;75733.78;5011976;28;20439;-79
2021/09/18 11:53:03;;;;;;;;;;;;;;;-142.75;47.21;75723.94;5004192;28;19912;-79
2021/09/18 11:55:28;;;;;;;;;;;;;;;-142.75;49.32;75779.03;5010464;28;19920;-78
2021/09/18 11:57:59;;;;;;;;;;;;;;;-142.75;50.29;75889.25;5019603;28;19914;-80
2021/09/18 12:00:24;;;;;;;;;;;;;;;-142.75;51.43;75889.25;5030144;28;19917;-79
2021/09/18 12:02:54;;;;;;;;;;;;;;;-142.75;49.64;75877.44;5031755;28;19917;-81
2021/09/18 12:05:19;;;;;;;;;;;;;;;-142.75;50.77;75816.44;5029829;28;19936;-80
2021/09/18 12:07:45;;;;;;;;;;;;;;;-142.75;50.86;75914.84;5012661;28;19914;-79
2021/09/18 12:10:11;;;;;;;;;;;;;;;-142.75;50.97;75928.63;5032121;28;19920;-78
2021/09/18 12:12:36;;;;;;;;;;;;;;;-142.75;52.15;75962.09;5004242;28;19924;-78
2021/09/18 12:15:02;;;;;;;;;;;;;;;-142.75;52.19;75966.00;5019669;28;19913;-79
2021/09/18 12:17:27;;;;;;;;;;;;;;;-142.75;51.77;75952.25;5010167;28;20271;-81
2021/09/18 12:19:52;;;;;;;;;;;;;;;-142.75;53.09;75983.72;5009086;28;19913;-80
2021/09/18 12:22:18;;;;;;;;;;;;;;;-142.75;52.53;75962.09;5022126;28;19924;-81